sensor_id;sensor_type;location;lat;lon;timestamp;temperature;humidity
16064;DHT22;8136;53.172;8.256;2024-02-15T06:46:21;12.10;99.90
16064;DHT22;8136;53.172;8.256;2024-02-15T06:48:49;12.20;99.90
16064;DHT22;8136;53.172;8.256;2024-02-15T06:51:15;12.20;99.90
16064;DHT22;8136;53.172;8.256;2024-02-15T06:53:42;12.10;99.90
16064;DHT22;8136;53.172;8.256;2024-02-15T06:56:09;12.20;99.90
16064;DHT22;8136;53.172;8.256;2024-02-15T06:58:37;12.20;99.90
16064;DHT22;8136;53.172;8.256;2024-02-15T07:01:05;12.10;99.90
16064;DHT22;8136;53.172;8.256;2024-02-15T07:03:34;12.20;99.90
16064;DHT22;8136;53.172;8.256;2024-02-15T07:06:01;12.20;99.90
16064;DHT22;8136;53.172;8.256;2024-02-15T07:08:29;12.20;99.90
16064;DHT22;8136;53.172;8.256;2024-02-15T07:10:56;12.20;99.90
16064;DHT22;8136;53.172;8.256;2024-02-15T07:13:24;12.20;99.90
16064;DHT22;8136;53.172;8.256;2024-02-15T07:15:52;12.20;99.90
16064;DHT22;8136;53.172;8.256;2024-02-15T07:18:19;12.20;99.90
16064;DHT22;8136;53.172;8.256;2024-02-15T07:20:49;12.20;99.90
16064;DHT22;8136;53.172;8.256;2024-02-15T07:23:16;12.30;99.90
16064;DHT22;8136;53.172;8.256;2024-02-15T07:25:43;12.30;99.90
16064;DHT22;8136;53.172;8.256;2024-02-15T07:28:14;12.30;99.90
16064;DHT22;8136;53.172;8.256;2024-02-15T07:30:41;12.30;99.90
16064;DHT22;8136;53.172;8.256;2024-02-15T07:33:08;12.30;99.90
16064;DHT22;8136;53.172;8.256;2024-02-15T07:35:35;12.30;99.90
16064;DHT22;8136;53.172;8.256;2024-02-15T07:38:03;12.40;99.90
16064;DHT22;8136;53.172;8.256;2024-02-15T07:40:30;12.40;99.90
16064;DHT22;8136;53.172;8.256;2024-02-15T07:42:57;12.40;99.90
16064;DHT22;8136;53.172;8.256;2024-02-15T07:45:24;12.40;99.90
16064;DHT22;8136;53.172;8.256;2024-02-15T07:47:51;12.40;99.90
16064;DHT22;8136;53.172;8.256;2024-02-15T07:50:19;12.50;99.90
16064;DHT22;8136;53.172;8.256;2024-02-15T07:52:48;12.50;99.90
16064;DHT22;8136;53.172;8.256;2024-02-15T07:55:18;12.50;99.90
16064;DHT22;8136;53.172;8.256;2024-02-15T07:57:44;12.50;99.90
16064;DHT22;8136;53.172;8.256;2024-02-15T08:00:14;12.50;99.90
16064;DHT22;8136;53.172;8.256;2024-02-15T08:02:42;12.50;99.90
16064;DHT22;8136;53.172;8.256;2024-02-15T08:05:10;12.50;99.90
16064;DHT22;8136;53.172;8.256;2024-02-15T08:07:37;12.50;99.90
16064;DHT22;8136;53.172;8.256;2024-02-15T08:10:06;12.50;99.90
16064;DHT22;8136;53.172;8.256;2024-02-15T08:12:40;12.50;99.90
16064;DHT22;8136;53.172;8.256;2024-02-15T08:15:08;12.50;99.90
16064;DHT22;8136;53.172;8.256;2024-02-15T08:17:38;12.50;99.90
16064;DHT22;8136;53.172;8.256;2024-02-15T08:20:07;12.50;99.90
16064;DHT22;8136;53.172;8.256;2024-02-15T08:22:34;12.50;99.90
16064;DHT22;8136;53.172;8.256;2024-02-15T08:25:06;12.60;99.90
16064;DHT22;8136;53.172;8.256;2024-02-15T08:27:36;12.60;99.90
16064;DHT22;8136;53.172;8.256;2024-02-15T08:30:08;12.60;99.90
16064;DHT22;8136;53.172;8.256;2024-02-15T08:32:36;12.50;99.90
16064;DHT22;8136;53.172;8.256;2024-02-15T08:35:05;12.60;99.90
16064;DHT22;8136;53.172;8.256;2024-02-15T08:37:33;12.60;99.90
16064;DHT22;8136;53.172;8.256;2024-02-15T08:40:00;12.60;99.90
16064;DHT22;8136;53.172;8.256;2024-02-15T08:42:28;12.60;99.90
16064;DHT22;8136;53.172;8.256;2024-02-15T08:44:55;12.60;99.90
16064;DHT22;8136;53.172;8.256;2024-02-15T08:47:23;12.60;99.90
16064;DHT22;8136;53.172;8.256;2024-02-15T08:49:50;12.60;99.90
16064;DHT22;8136;53.172;8.256;2024-02-15T08:52:17;12.60;99.90
16064;DHT22;8136;53.172;8.256;2024-02-15T08:54:44;12.60;99.90
16064;DHT22;8136;53.172;8.256;2024-02-15T08:57:11;12.60;99.90
16064;DHT22;8136;53.172;8.256;2024-02-15T08:59:39;12.60;99.90
16064;DHT22;8136;53.172;8.256;2024-02-15T09:02:08;12.60;99.90
16064;DHT22;8136;53.172;8.256;2024-02-15T09:04:36;12.60;99.90
16064;DHT22;8136;53.172;8.256;2024-02-15T09:07:03;12.60;99.90
16064;DHT22;8136;53.172;8.256;2024-02-15T09:09:30;12.60;99.90
16064;DHT22;8136;53.172;8.256;2024-02-15T09:12:01;12.60;99.90
16064;DHT22;8136;53.172;8.256;2024-02-15T09:14:30;12.60;99.90
16064;DHT22;8136;53.172;8.256;2024-02-15T09:16:57;12.60;99.90
16064;DHT22;8136;53.172;8.256;2024-02-15T09:19:24;12.70;99.90
16064;DHT22;8136;53.172;8.256;2024-02-15T13:16:26;13.20;99.90
16064;DHT22;8136;53.172;8.256;2024-02-15T13:18:55;13.20;99.90
16064;DHT22;8136;53.172;8.256;2024-02-15T13:21:29;13.20;99.90
16064;DHT22;8136;53.172;8.256;2024-02-15T13:23:57;13.20;99.90
16064;DHT22;8136;53.172;8.256;2024-02-15T13:26:24;13.20;99.90
16064;DHT22;8136;53.172;8.256;2024-02-15T13:28:52;13.30;99.90
16064;DHT22;8136;53.172;8.256;2024-02-15T13:31:21;13.30;99.90
16064;DHT22;8136;53.172;8.256;2024-02-15T13:33:49;13.30;99.90
16064;DHT22;8136;53.172;8.256;2024-02-15T13:36:23;13.30;99.90
16064;DHT22;8136;53.172;8.256;2024-02-15T13:38:57;13.30;99.90
16064;DHT22;8136;53.172;8.256;2024-02-15T13:41:30;13.40;99.90
16064;DHT22;8136;53.172;8.256;2024-02-15T13:43:59;13.40;99.90
16064;DHT22;8136;53.172;8.256;2024-02-15T13:46:30;13.40;99.90
16064;DHT22;8136;53.172;8.256;2024-02-15T13:49:36;13.30;99.90
16064;DHT22;8136;53.172;8.256;2024-02-15T13:52:04;13.30;99.90
16064;DHT22;8136;53.172;8.256;2024-02-15T13:54:33;13.20;99.90
16064;DHT22;8136;53.172;8.256;2024-02-15T13:57:01;13.20;99.90
16064;DHT22;8136;53.172;8.256;2024-02-15T13:59:28;13.20;99.90
16064;DHT22;8136;53.172;8.256;2024-02-15T14:01:55;13.20;99.90
16064;DHT22;8136;53.172;8.256;2024-02-15T14:04:28;13.20;99.90
16064;DHT22;8136;53.172;8.256;2024-02-15T14:06:59;13.20;99.90
16064;DHT22;8136;53.172;8.256;2024-02-15T14:09:29;13.30;99.90
16064;DHT22;8136;53.172;8.256;2024-02-15T14:11:56;13.30;99.90
16064;DHT22;8136;53.172;8.256;2024-02-15T14:14:23;13.30;99.90
16064;DHT22;8136;53.172;8.256;2024-02-15T14:16:51;13.30;99.90
16064;DHT22;8136;53.172;8.256;2024-02-15T14:19:18;13.30;99.90
16064;DHT22;8136;53.172;8.256;2024-02-15T14:21:46;13.40;99.90
16064;DHT22;8136;53.172;8.256;2024-02-15T14:24:15;13.30;99.90
16064;DHT22;8136;53.172;8.256;2024-02-15T14:26:44;13.30;99.90
16064;DHT22;8136;53.172;8.256;2024-02-15T14:29:12;13.30;99.90
16064;DHT22;8136;53.172;8.256;2024-02-15T14:31:46;13.40;99.90
16064;DHT22;8136;53.172;8.256;2024-02-15T14:34:30;13.30;99.90
16064;DHT22;8136;53.172;8.256;2024-02-15T14:37:01;13.30;99.90
16064;DHT22;8136;53.172;8.256;2024-02-15T14:39:59;13.30;99.90
16064;DHT22;8136;53.172;8.256;2024-02-15T14:42:37;13.40;99.90
16064;DHT22;8136;53.172;8.256;2024-02-15T14:45:17;13.30;99.90
16064;DHT22;8136;53.172;8.256;2024-02-15T14:47:48;13.30;99.90
16064;DHT22;8136;53.172;8.256;2024-02-15T14:50:15;13.30;99.90
16064;DHT22;8136;53.172;8.256;2024-02-15T14:52:42;13.30;99.90
16064;DHT22;8136;53.172;8.256;2024-02-15T14:55:12;13.30;99.90
16064;DHT22;8136;53.172;8.256;2024-02-15T14:57:39;13.30;99.90
16064;DHT22;8136;53.172;8.256;2024-02-15T15:00:07;13.30;99.90
16064;DHT22;8136;53.172;8.256;2024-02-15T15:02:38;13.30;99.90
16064;DHT22;8136;53.172;8.256;2024-02-15T15:05:09;13.30;99.90
16064;DHT22;8136;53.172;8.256;2024-02-15T15:07:53;13.30;99.90
16064;DHT22;8136;53.172;8.256;2024-02-15T15:10:39;13.30;99.90
16064;DHT22;8136;53.172;8.256;2024-02-15T15:13:23;13.30;99.90
16064;DHT22;8136;53.172;8.256;2024-02-15T15:15:51;13.30;99.90
16064;DHT22;8136;53.172;8.256;2024-02-15T15:18:19;13.30;99.90
16064;DHT22;8136;53.172;8.256;2024-02-15T15:24:08;13.30;99.90
